Detailed Flight Report of Ibrahim CANDAN ;
Number CXD001 
Departure Aerodrome LTBJ 
Arrival Aerodrome LTAI

Map generated by the Great Circle Mapper - copyright © Karl L. Swartz.

Pilot In Command CXD001 : Ibrahim Candan
Aircraft A320 / TC-SCC
Date Of Flight 2019-11-09
Departure Time 10:34 UTC
Arrival Time 11:31 UTC
Block Time 00:57
Distance 222 Nm.
Used Fuel 4,662 Lbs.
   
Detailed Flight Log [2019/11/09 10:45:00]
Flight IATA:C001
Pilot Number:001
Company ICAO:CXD
Aircraft Type:A320
Aircraft Registration:TC-SCC
Departing Airport: LTBJ
Destination Airport: LTAI
Alternate Airport:LTBS
Online: VATSIM
Route:BAPSI UN135 LAVTA N135 BALSU UN135 NESIL
Flight Level:27000
No pause
10:45 Zero fuel Weight: 135950 Lbs, Fuel Weight: 9669 Lbs
10:45 VATSIM:LTBJ 092050Z 00000KT CAVOK 12/11 Q1017 NOSIG
10:45 VATSIM:LTAI 092050Z 34005KT 300V360 CAVOK 16/09 Q1017 NOSIG
10:47 Parking Brakes off
10:58 VR= 160 Knots
10:58 V2= 168 Knots
10:58 Take-off
10:58 Take off Weight: 145197 Lbs
10:58 Wind: 000º @ 000 Knots Heading: 166º
10:58 POS N38º 17´ 25´´ E027º 09´ 30´´
10:58 N11 84 N12 84
10:58 Gear Up: 168 Knots
10:58 Flaps:2 at 168 Knots
10:59 Flaps:Up at 198 Knots
11:11 TOC
11:11 Fuel Weight: 6687 Lb
11:13 Wind:202º@017 Knots Heading: 117º Ground Speed: 442 Knots Altitude
27148 ft
11:17 TOD
11:17 Fuel Weight: 6184 Lb
11:28 Wind:197º@002 Knots Heading: 131º Ground Speed: 293 Knots Altitude 10344 ft
11:32 Flaps:1 at 212 Knots
11:34 Flaps:1 F at 198 Knots
11:34 Gear Down: 198 Knots
11:34 Flaps:2 at 196 Knots
11:34 Flaps:3 at 195 Knots
11:34 Flaps: at 194 Knots
11:35 Flaps: at 172 Knots
11:35 Flaps: at 150 Knots
11:38 TouchDown:Rate -244 ft/min Speed: 132 Knots
11:38 VATSIM:LTAI 092150Z 36003KT CAVOK 15/08 Q1017 NOSIG
11:38 Land
11:38 Wind:000º@003 Knots
11:38 Heading: 005º
11:38 Flight Duration: 00:40
11:38 Landing Weight: 141156 Lbs
11:38 POS N36º 53´ 49´´ E030º 47´ 31´´
11:44 Parking brakes on
11:44 Block to Block Duration: 00:57
11:44 Final Fuel: 5006 Lbls
11:44 Spent Fuel: 4662 Lbls
11:44 Flight Length: 222 NM
11:44 TOD Land Length: 101 NM

Text Link of Flight Log http://www.candanair.net/acars/logs/CXD00120191109104500.txt
   

[ Back ]